sensor_id;sensor_type;location;lat;lon;timestamp;temperature;humidity
3548;DHT22;1788;49.400;11.092;2022-07-29T00:02:12;24.30;40.90
3548;DHT22;1788;49.400;11.092;2022-07-29T00:04:38;24.20;40.70
3548;DHT22;1788;49.400;11.092;2022-07-29T00:07:05;24.30;40.70
3548;DHT22;1788;49.400;11.092;2022-07-29T00:09:31;24.30;40.60
3548;DHT22;1788;49.400;11.092;2022-07-29T00:11:59;24.30;40.50
3548;DHT22;1788;49.400;11.092;2022-07-29T00:14:25;24.30;40.50
3548;DHT22;1788;49.400;11.092;2022-07-29T00:16:51;24.30;40.50
3548;DHT22;1788;49.400;11.092;2022-07-29T00:19:18;24.30;40.40
3548;DHT22;1788;49.400;11.092;2022-07-29T00:21:44;24.30;40.40
3548;DHT22;1788;49.400;11.092;2022-07-29T00:24:11;24.30;40.40
3548;DHT22;1788;49.400;11.092;2022-07-29T00:26:38;24.30;40.30
3548;DHT22;1788;49.400;11.092;2022-07-29T00:29:04;24.40;40.30
3548;DHT22;1788;49.400;11.092;2022-07-29T00:31:31;24.40;40.20
3548;DHT22;1788;49.400;11.092;2022-07-29T00:33:58;24.40;40.10
3548;DHT22;1788;49.400;11.092;2022-07-29T00:36:24;24.40;40.00
3548;DHT22;1788;49.400;11.092;2022-07-29T00:38:51;24.40;39.90
3548;DHT22;1788;49.400;11.092;2022-07-29T00:41:17;24.40;39.70
3548;DHT22;1788;49.400;11.092;2022-07-29T00:43:44;24.30;39.60
3548;DHT22;1788;49.400;11.092;2022-07-29T00:46:11;24.30;39.50
3548;DHT22;1788;49.400;11.092;2022-07-29T00:48:37;24.30;39.50
3548;DHT22;1788;49.400;11.092;2022-07-29T00:51:04;24.30;39.40
3548;DHT22;1788;49.400;11.092;2022-07-29T00:53:31;24.30;39.40
3548;DHT22;1788;49.400;11.092;2022-07-29T00:55:57;24.30;39.50
3548;DHT22;1788;49.400;11.092;2022-07-29T00:58:24;24.20;39.50
3548;DHT22;1788;49.400;11.092;2022-07-29T01:00:50;24.20;39.70
3548;DHT22;1788;49.400;11.092;2022-07-29T01:03:17;24.10;39.70
3548;DHT22;1788;49.400;11.092;2022-07-29T01:05:44;24.10;39.80
3548;DHT22;1788;49.400;11.092;2022-07-29T01:08:11;24.10;39.90
3548;DHT22;1788;49.400;11.092;2022-07-29T01:10:37;24.10;39.90
3548;DHT22;1788;49.400;11.092;2022-07-29T01:13:03;24.10;40.00
3548;DHT22;1788;49.400;11.092;2022-07-29T01:15:30;24.10;40.00
3548;DHT22;1788;49.400;11.092;2022-07-29T01:20:26;24.10;40.10
3548;DHT22;1788;49.400;11.092;2022-07-29T01:25:21;23.90;40.10
3548;DHT22;1788;49.400;11.092;2022-07-29T01:30:11;23.80;40.60
3548;DHT22;1788;49.400;11.092;2022-07-29T01:32:38;23.80;40.60
3548;DHT22;1788;49.400;11.092;2022-07-29T01:37:34;23.80;40.80
3548;DHT22;1788;49.400;11.092;2022-07-29T01:39:59;23.80;40.90
3548;DHT22;1788;49.400;11.092;2022-07-29T01:47:20;23.80;41.00
3548;DHT22;1788;49.400;11.092;2022-07-29T01:49:47;23.80;41.10
3548;DHT22;1788;49.400;11.092;2022-07-29T01:57:06;23.80;41.40
3548;DHT22;1788;49.400;11.092;2022-07-29T01:59:33;23.80;41.50
3548;DHT22;1788;49.400;11.092;2022-07-29T02:01:59;23.70;41.60
3548;DHT22;1788;49.400;11.092;2022-07-29T02:04:25;23.70;41.70
3548;DHT22;1788;49.400;11.092;2022-07-29T02:06:53;23.60;42.40
3548;DHT22;1788;49.400;11.092;2022-07-29T02:09:19;23.50;41.80
3548;DHT22;1788;49.400;11.092;2022-07-29T02:11:47;23.40;41.90
3548;DHT22;1788;49.400;11.092;2022-07-29T02:14:12;23.40;42.20
3548;DHT22;1788;49.400;11.092;2022-07-29T02:16:39;23.40;42.30
3548;DHT22;1788;49.400;11.092;2022-07-29T02:19:06;23.30;42.50
3548;DHT22;1788;49.400;11.092;2022-07-29T02:21:33;23.30;42.50
3548;DHT22;1788;49.400;11.092;2022-07-29T02:24:01;23.30;43.30
3548;DHT22;1788;49.400;11.092;2022-07-29T02:26:27;23.30;42.70
3548;DHT22;1788;49.400;11.092;2022-07-29T02:28:54;23.30;42.80
3548;DHT22;1788;49.400;11.092;2022-07-29T02:31:29;23.30;42.80
3548;DHT22;1788;49.400;11.092;2022-07-29T02:33:47;23.30;42.90
3548;DHT22;1788;49.400;11.092;2022-07-29T02:36:14;23.30;42.90
3548;DHT22;1788;49.400;11.092;2022-07-29T02:38:41;23.30;43.00
3548;DHT22;1788;49.400;11.092;2022-07-29T02:43:34;23.20;43.10
3548;DHT22;1788;49.400;11.092;2022-07-29T02:46:00;23.20;43.20
3548;DHT22;1788;49.400;11.092;2022-07-29T02:48:27;23.20;43.30
3548;DHT22;1788;49.400;11.092;2022-07-29T02:50:55;23.10;43.30
3548;DHT22;1788;49.400;11.092;2022-07-29T02:53:22;23.10;43.40
3548;DHT22;1788;49.400;11.092;2022-07-29T02:55:48;23.10;43.50
3548;DHT22;1788;49.400;11.092;2022-07-29T02:58:15;23.10;43.60
3548;DHT22;1788;49.400;11.092;2022-07-29T03:00:41;23.00;43.80
3548;DHT22;1788;49.400;11.092;2022-07-29T03:03:08;23.00;43.80
3548;DHT22;1788;49.400;11.092;2022-07-29T03:05:35;23.00;44.00
3548;DHT22;1788;49.400;11.092;2022-07-29T03:08:02;23.00;44.00
3548;DHT22;1788;49.400;11.092;2022-07-29T03:10:28;23.00;44.10
3548;DHT22;1788;49.400;11.092;2022-07-29T03:12:55;22.90;44.20
3548;DHT22;1788;49.400;11.092;2022-07-29T03:15:21;22.90;44.30
3548;DHT22;1788;49.400;11.092;2022-07-29T03:17:48;22.90;44.40
3548;DHT22;1788;49.400;11.092;2022-07-29T03:20:14;22.90;44.50
3548;DHT22;1788;49.400;11.092;2022-07-29T03:22:42;22.90;44.60
3548;DHT22;1788;49.400;11.092;2022-07-29T03:25:08;22.90;44.80
3548;DHT22;1788;49.400;11.092;2022-07-29T03:27:34;22.90;44.90
3548;DHT22;1788;49.400;11.092;2022-07-29T03:30:01;22.80;44.90
3548;DHT22;1788;49.400;11.092;2022-07-29T03:32:27;22.80;45.00
3548;DHT22;1788;49.400;11.092;2022-07-29T03:34:54;22.80;45.10
3548;DHT22;1788;49.400;11.092;2022-07-29T03:37:21;22.80;45.20
3548;DHT22;1788;49.400;11.092;2022-07-29T03:39:47;22.80;45.30
3548;DHT22;1788;49.400;11.092;2022-07-29T03:42:15;22.80;45.50
3548;DHT22;1788;49.400;11.092;2022-07-29T03:44:42;22.80;45.40
3548;DHT22;1788;49.400;11.092;2022-07-29T03:47:09;22.70;45.50
3548;DHT22;1788;49.400;11.092;2022-07-29T03:49:35;22.70;45.50
3548;DHT22;1788;49.400;11.092;2022-07-29T03:52:03;22.70;45.20
3548;DHT22;1788;49.400;11.092;2022-07-29T03:54:29;22.60;45.40
3548;DHT22;1788;49.400;11.092;2022-07-29T03:56:56;22.60;45.50
3548;DHT22;1788;49.400;11.092;2022-07-29T03:59:22;22.60;45.50
3548;DHT22;1788;49.400;11.092;2022-07-29T04:01:49;22.60;45.50
3548;DHT22;1788;49.400;11.092;2022-07-29T04:04:16;22.50;45.40
3548;DHT22;1788;49.400;11.092;2022-07-29T04:06:43;22.50;45.40
3548;DHT22;1788;49.400;11.092;2022-07-29T04:09:09;22.50;45.40
3548;DHT22;1788;49.400;11.092;2022-07-29T04:11:36;22.50;45.50
3548;DHT22;1788;49.400;11.092;2022-07-29T04:14:03;22.40;45.80
3548;DHT22;1788;49.400;11.092;2022-07-29T04:16:29;22.40;45.60
3548;DHT22;1788;49.400;11.092;2022-07-29T04:18:56;22.40;45.70
3548;DHT22;1788;49.400;11.092;2022-07-29T04:21:23;22.40;45.80
3548;DHT22;1788;49.400;11.092;2022-07-29T04:23:49;22.30;45.80
3548;DHT22;1788;49.400;11.092;2022-07-29T04:26:17;22.30;45.80
3548;DHT22;1788;49.400;11.092;2022-07-29T04:28:43;22.30;45.80
3548;DHT22;1788;49.400;11.092;2022-07-29T04:31:10;22.30;45.80
3548;DHT22;1788;49.400;11.092;2022-07-29T04:33:37;22.20;45.90
3548;DHT22;1788;49.400;11.092;2022-07-29T04:36:03;22.10;46.00
3548;DHT22;1788;49.400;11.092;2022-07-29T04:38:30;22.00;46.10
3548;DHT22;1788;49.400;11.092;2022-07-29T04:40:57;22.00;46.20
3548;DHT22;1788;49.400;11.092;2022-07-29T04:43:23;22.00;46.20
3548;DHT22;1788;49.400;11.092;2022-07-29T04:45:50;22.00;46.20
3548;DHT22;1788;49.400;11.092;2022-07-29T04:48:17;22.00;46.20
3548;DHT22;1788;49.400;11.092;2022-07-29T04:50:44;22.00;46.20
3548;DHT22;1788;49.400;11.092;2022-07-29T04:53:10;21.90;46.10
3548;DHT22;1788;49.400;11.092;2022-07-29T04:55:37;21.90;46.20
3548;DHT22;1788;49.400;11.092;2022-07-29T04:58:04;21.90;46.20
3548;DHT22;1788;49.400;11.092;2022-07-29T05:00:30;21.90;46.30
3548;DHT22;1788;49.400;11.092;2022-07-29T05:02:57;21.90;46.40
3548;DHT22;1788;49.400;11.092;2022-07-29T05:05:24;21.90;46.40
3548;DHT22;1788;49.400;11.092;2022-07-29T05:07:50;21.90;46.30
3548;DHT22;1788;49.400;11.092;2022-07-29T05:10:18;21.80;46.20
3548;DHT22;1788;49.400;11.092;2022-07-29T05:12:45;21.90;46.40
3548;DHT22;1788;49.400;11.092;2022-07-29T05:15:12;21.90;46.40
3548;DHT22;1788;49.400;11.092;2022-07-29T05:17:39;21.90;46.40
3548;DHT22;1788;49.400;11.092;2022-07-29T05:20:06;21.90;46.40
3548;DHT22;1788;49.400;11.092;2022-07-29T05:22:32;22.00;46.50
3548;DHT22;1788;49.400;11.092;2022-07-29T05:24:59;22.00;46.50
3548;DHT22;1788;49.400;11.092;2022-07-29T05:27:25;22.10;46.40
3548;DHT22;1788;49.400;11.092;2022-07-29T05:29:52;22.10;46.40
3548;DHT22;1788;49.400;11.092;2022-07-29T05:32:19;22.10;46.40
3548;DHT22;1788;49.400;11.092;2022-07-29T05:34:45;22.20;46.50
3548;DHT22;1788;49.400;11.092;2022-07-29T05:37:12;22.30;46.50
3548;DHT22;1788;49.400;11.092;2022-07-29T05:39:40;22.30;46.50
3548;DHT22;1788;49.400;11.092;2022-07-29T05:44:36;22.50;46.40
3548;DHT22;1788;49.400;11.092;2022-07-29T05:47:01;22.60;46.30
3548;DHT22;1788;49.400;11.092;2022-07-29T05:49:28;22.70;46.10
3548;DHT22;1788;49.400;11.092;2022-07-29T05:51:54;22.80;46.00
3548;DHT22;1788;49.400;11.092;2022-07-29T05:54:21;22.80;45.70
3548;DHT22;1788;49.400;11.092;2022-07-29T05:56:48;23.00;45.70
3548;DHT22;1788;49.400;11.092;2022-07-29T05:59:16;23.20;45.50
3548;DHT22;1788;49.400;11.092;2022-07-29T06:01:43;23.20;45.50
3548;DHT22;1788;49.400;11.092;2022-07-29T06:04:10;23.30;45.40
3548;DHT22;1788;49.400;11.092;2022-07-29T06:06:36;23.40;45.40
3548;DHT22;1788;49.400;11.092;2022-07-29T06:09:03;23.60;45.30
3548;DHT22;1788;49.400;11.092;2022-07-29T06:11:31;23.80;45.20
3548;DHT22;1788;49.400;11.092;2022-07-29T06:13:58;23.80;45.30
3548;DHT22;1788;49.400;11.092;2022-07-29T06:16:24;23.90;45.00
3548;DHT22;1788;49.400;11.092;2022-07-29T06:18:51;24.00;44.90
3548;DHT22;1788;49.400;11.092;2022-07-29T06:21:17;24.10;44.70
3548;DHT22;1788;49.400;11.092;2022-07-29T06:23:44;24.20;44.50
3548;DHT22;1788;49.400;11.092;2022-07-29T06:26:11;24.40;44.50
3548;DHT22;1788;49.400;11.092;2022-07-29T06:28:37;24.50;44.30
3548;DHT22;1788;49.400;11.092;2022-07-29T06:31:05;24.70;44.20
3548;DHT22;1788;49.400;11.092;2022-07-29T06:33:31;24.80;44.00
3548;DHT22;1788;49.400;11.092;2022-07-29T06:35:58;25.00;43.80
3548;DHT22;1788;49.400;11.092;2022-07-29T06:38:25;25.10;43.60
3548;DHT22;1788;49.400;11.092;2022-07-29T06:40:52;25.20;43.20
3548;DHT22;1788;49.400;11.092;2022-07-29T06:43:18;25.20;43.20
3548;DHT22;1788;49.400;11.092;2022-07-29T06:45:46;25.40;43.50
3548;DHT22;1788;49.400;11.092;2022-07-29T06:48:13;25.30;43.00
3548;DHT22;1788;49.400;11.092;2022-07-29T06:50:40;25.40;42.80
3548;DHT22;1788;49.400;11.092;2022-07-29T06:53:07;25.60;42.80
3548;DHT22;1788;49.400;11.092;2022-07-29T06:55:33;25.60;42.60
3548;DHT22;1788;49.400;11.092;2022-07-29T06:58:00;25.70;42.50
3548;DHT22;1788;49.400;11.092;2022-07-29T07:00:26;25.80;42.40
3548;DHT22;1788;49.400;11.092;2022-07-29T07:02:53;25.90;42.30
3548;DHT22;1788;49.400;11.092;2022-07-29T07:05:20;26.00;42.10
3548;DHT22;1788;49.400;11.092;2022-07-29T07:07:47;26.00;42.10
3548;DHT22;1788;49.400;11.092;2022-07-29T07:10:14;26.10;42.10
3548;DHT22;1788;49.400;11.092;2022-07-29T07:12:41;26.10;42.10
3548;DHT22;1788;49.400;11.092;2022-07-29T07:15:08;26.20;42.00
3548;DHT22;1788;49.400;11.092;2022-07-29T07:17:34;26.30;41.90
3548;DHT22;1788;49.400;11.092;2022-07-29T07:20:01;26.40;41.90
3548;DHT22;1788;49.400;11.092;2022-07-29T07:22:28;26.40;41.80
3548;DHT22;1788;49.400;11.092;2022-07-29T07:24:54;26.40;41.70
3548;DHT22;1788;49.400;11.092;2022-07-29T07:27:21;26.50;41.60
3548;DHT22;1788;49.400;11.092;2022-07-29T07:29:48;26.50;41.50
3548;DHT22;1788;49.400;11.092;2022-07-29T07:32:14;26.60;41.50
3548;DHT22;1788;49.400;11.092;2022-07-29T07:34:41;26.60;41.40
3548;DHT22;1788;49.400;11.092;2022-07-29T07:37:07;26.70;41.40
3548;DHT22;1788;49.400;11.092;2022-07-29T07:39:34;26.80;41.30
3548;DHT22;1788;49.400;11.092;2022-07-29T07:42:01;26.90;41.30
3548;DHT22;1788;49.400;11.092;2022-07-29T07:44:27;26.90;41.20
3548;DHT22;1788;49.400;11.092;2022-07-29T07:46:54;27.00;41.10
3548;DHT22;1788;49.400;11.092;2022-07-29T07:49:21;27.00;40.90
3548;DHT22;1788;49.400;11.092;2022-07-29T07:51:49;27.20;40.80
3548;DHT22;1788;49.400;11.092;2022-07-29T07:54:15;27.20;40.80
3548;DHT22;1788;49.400;11.092;2022-07-29T07:56:43;27.30;40.60
3548;DHT22;1788;49.400;11.092;2022-07-29T07:59:09;27.30;40.60
3548;DHT22;1788;49.400;11.092;2022-07-29T08:01:36;27.40;40.60
3548;DHT22;1788;49.400;11.092;2022-07-29T08:04:02;27.40;40.60
3548;DHT22;1788;49.400;11.092;2022-07-29T08:06:29;27.40;40.50
3548;DHT22;1788;49.400;11.092;2022-07-29T08:08:56;27.40;40.60
3548;DHT22;1788;49.400;11.092;2022-07-29T08:11:23;27.30;40.50
3548;DHT22;1788;49.400;11.092;2022-07-29T08:13:50;27.40;40.60
3548;DHT22;1788;49.400;11.092;2022-07-29T08:16:17;27.40;40.60
3548;DHT22;1788;49.400;11.092;2022-07-29T08:18:45;27.50;40.70
3548;DHT22;1788;49.400;11.092;2022-07-29T08:21:12;27.50;40.50
3548;DHT22;1788;49.400;11.092;2022-07-29T08:23:39;27.60;40.50
3548;DHT22;1788;49.400;11.092;2022-07-29T08:26:06;27.70;40.60
3548;DHT22;1788;49.400;11.092;2022-07-29T08:28:32;27.60;40.50
3548;DHT22;1788;49.400;11.092;2022-07-29T08:30:59;27.70;40.60
3548;DHT22;1788;49.400;11.092;2022-07-29T08:33:25;27.80;40.50
3548;DHT22;1788;49.400;11.092;2022-07-29T08:35:52;27.90;40.40
3548;DHT22;1788;49.400;11.092;2022-07-29T08:38:19;28.10;39.70
3548;DHT22;1788;49.400;11.092;2022-07-29T08:40:46;28.10;40.10
3548;DHT22;1788;49.400;11.092;2022-07-29T08:43:13;28.20;39.90
3548;DHT22;1788;49.400;11.092;2022-07-29T08:45:41;28.40;39.90
3548;DHT22;1788;49.400;11.092;2022-07-29T08:48:06;28.50;39.70
3548;DHT22;1788;49.400;11.092;2022-07-29T08:50:34;29.00;39.40
3548;DHT22;1788;49.400;11.092;2022-07-29T08:53:00;28.90;39.30
3548;DHT22;1788;49.400;11.092;2022-07-29T08:55:27;29.40;38.80
3548;DHT22;1788;49.400;11.092;2022-07-29T08:57:54;29.40;38.80
3548;DHT22;1788;49.400;11.092;2022-07-29T09:00:21;29.80;38.40
3548;DHT22;1788;49.400;11.092;2022-07-29T09:02:48;29.80;38.40
3548;DHT22;1788;49.400;11.092;2022-07-29T09:05:14;30.00;38.10
3548;DHT22;1788;49.400;11.092;2022-07-29T09:07:41;30.20;38.40
3548;DHT22;1788;49.400;11.092;2022-07-29T09:10:08;30.40;37.60
3548;DHT22;1788;49.400;11.092;2022-07-29T09:12:34;30.60;37.30
3548;DHT22;1788;49.400;11.092;2022-07-29T09:15:01;30.80;37.10
3548;DHT22;1788;49.400;11.092;2022-07-29T09:19:54;31.10;36.70
3548;DHT22;1788;49.400;11.092;2022-07-29T09:22:28;31.30;36.80
3548;DHT22;1788;49.400;11.092;2022-07-29T09:24:48;31.30;36.20
3548;DHT22;1788;49.400;11.092;2022-07-29T09:29:41;31.50;35.90
3548;DHT22;1788;49.400;11.092;2022-07-29T09:32:09;31.50;35.50
3548;DHT22;1788;49.400;11.092;2022-07-29T09:34:36;31.40;35.10
3548;DHT22;1788;49.400;11.092;2022-07-29T09:37:02;31.30;34.90
3548;DHT22;1788;49.400;11.092;2022-07-29T09:39:31;31.20;35.00
3548;DHT22;1788;49.400;11.092;2022-07-29T09:41:57;31.20;35.00
3548;DHT22;1788;49.400;11.092;2022-07-29T09:44:23;31.20;35.10
3548;DHT22;1788;49.400;11.092;2022-07-29T09:49:16;31.10;35.00
3548;DHT22;1788;49.400;11.092;2022-07-29T09:51:43;31.10;34.90
3548;DHT22;1788;49.400;11.092;2022-07-29T10:01:30;30.70;34.60
3548;DHT22;1788;49.400;11.092;2022-07-29T10:03:57;30.70;34.70
3548;DHT22;1788;49.400;11.092;2022-07-29T10:06:25;30.70;34.70
3548;DHT22;1788;49.400;11.092;2022-07-29T10:08:51;30.70;34.50
3548;DHT22;1788;49.400;11.092;2022-07-29T10:11:18;30.90;34.50
3548;DHT22;1788;49.400;11.092;2022-07-29T10:13:46;31.00;34.30
3548;DHT22;1788;49.400;11.092;2022-07-29T10:16:12;31.20;34.20
3548;DHT22;1788;49.400;11.092;2022-07-29T10:18:39;31.20;34.10
3548;DHT22;1788;49.400;11.092;2022-07-29T10:21:05;31.30;34.10
3548;DHT22;1788;49.400;11.092;2022-07-29T10:23:32;31.40;34.00
3548;DHT22;1788;49.400;11.092;2022-07-29T10:25:58;31.50;34.00
3548;DHT22;1788;49.400;11.092;2022-07-29T10:28:25;31.70;34.00
3548;DHT22;1788;49.400;11.092;2022-07-29T10:30:52;31.90;33.80
3548;DHT22;1788;49.400;11.092;2022-07-29T10:45:33;32.50;33.00
3548;DHT22;1788;49.400;11.092;2022-07-29T10:50:28;32.70;32.90
3548;DHT22;1788;49.400;11.092;2022-07-29T10:52:55;32.80;32.70
3548;DHT22;1788;49.400;11.092;2022-07-29T10:58:10;32.90;32.60
3548;DHT22;1788;49.400;11.092;2022-07-29T11:02:42;32.90;32.70
3548;DHT22;1788;49.400;11.092;2022-07-29T11:05:09;32.80;32.70
3548;DHT22;1788;49.400;11.092;2022-07-29T11:07:36;32.70;32.90
3548;DHT22;1788;49.400;11.092;2022-07-29T11:14:55;32.30;33.10
3548;DHT22;1788;49.400;11.092;2022-07-29T11:17:21;32.00;33.20
3548;DHT22;1788;49.400;11.092;2022-07-29T11:19:48;31.70;33.50
3548;DHT22;1788;49.400;11.092;2022-07-29T11:24:41;31.30;33.90
3548;DHT22;1788;49.400;11.092;2022-07-29T11:27:08;31.20;34.10
3548;DHT22;1788;49.400;11.092;2022-07-29T11:34:28;31.00;34.50
3548;DHT22;1788;49.400;11.092;2022-07-29T11:41:48;31.30;34.90
3548;DHT22;1788;49.400;11.092;2022-07-29T11:44:15;31.30;34.80
3548;DHT22;1788;49.400;11.092;2022-07-29T11:49:09;31.30;34.90
3548;DHT22;1788;49.400;11.092;2022-07-29T11:54:02;31.40;34.90
3548;DHT22;1788;49.400;11.092;2022-07-29T11:56:29;31.40;34.90
3548;DHT22;1788;49.400;11.092;2022-07-29T12:01:22;31.70;35.10
3548;DHT22;1788;49.400;11.092;2022-07-29T12:03:50;32.20;34.90
3548;DHT22;1788;49.400;11.092;2022-07-29T12:06:16;32.20;34.90
3548;DHT22;1788;49.400;11.092;2022-07-29T12:08:44;32.50;34.20
3548;DHT22;1788;49.400;11.092;2022-07-29T12:16:05;33.00;33.20
3548;DHT22;1788;49.400;11.092;2022-07-29T12:18:32;33.00;33.10
3548;DHT22;1788;49.400;11.092;2022-07-29T12:21:00;33.10;32.80
3548;DHT22;1788;49.400;11.092;2022-07-29T12:23:26;33.30;32.40
3548;DHT22;1788;49.400;11.092;2022-07-29T12:25:53;33.30;32.40
3548;DHT22;1788;49.400;11.092;2022-07-29T12:28:20;33.40;32.50
3548;DHT22;1788;49.400;11.092;2022-07-29T12:30:48;33.40;32.50
3548;DHT22;1788;49.400;11.092;2022-07-29T12:35:41;33.70;32.30
3548;DHT22;1788;49.400;11.092;2022-07-29T12:38:09;33.90;32.00
3548;DHT22;1788;49.400;11.092;2022-07-29T12:40:35;33.80;31.80
3548;DHT22;1788;49.400;11.092;2022-07-29T12:45:29;33.70;31.60
3548;DHT22;1788;49.400;11.092;2022-07-29T12:47:55;33.50;31.50
3548;DHT22;1788;49.400;11.092;2022-07-29T12:50:21;33.40;31.40
3548;DHT22;1788;49.400;11.092;2022-07-29T12:52:48;33.20;31.20
3548;DHT22;1788;49.400;11.092;2022-07-29T12:55:15;33.10;31.00
3548;DHT22;1788;49.400;11.092;2022-07-29T13:00:09;32.60;31.40
3548;DHT22;1788;49.400;11.092;2022-07-29T13:02:34;32.40;30.90
3548;DHT22;1788;49.400;11.092;2022-07-29T13:05:02;32.20;31.40
3548;DHT22;1788;49.400;11.092;2022-07-29T13:07:29;32.20;31.30
3548;DHT22;1788;49.400;11.092;2022-07-29T13:12:22;32.00;31.70
3548;DHT22;1788;49.400;11.092;2022-07-29T13:14:49;32.00;31.80
3548;DHT22;1788;49.400;11.092;2022-07-29T13:17:15;32.00;32.00
3548;DHT22;1788;49.400;11.092;2022-07-29T13:19:43;31.90;32.60
3548;DHT22;1788;49.400;11.092;2022-07-29T13:22:10;31.90;32.60
3548;DHT22;1788;49.400;11.092;2022-07-29T13:27:03;31.80;32.60
3548;DHT22;1788;49.400;11.092;2022-07-29T13:29:30;31.70;32.90
3548;DHT22;1788;49.400;11.092;2022-07-29T13:31:56;31.60;33.30
3548;DHT22;1788;49.400;11.092;2022-07-29T13:34:23;31.30;33.60
3548;DHT22;1788;49.400;11.092;2022-07-29T13:36:50;30.70;34.80
3548;DHT22;1788;49.400;11.092;2022-07-29T13:39:17;30.60;34.70
3548;DHT22;1788;49.400;11.092;2022-07-29T13:41:44;30.00;35.70
3548;DHT22;1788;49.400;11.092;2022-07-29T13:44:11;30.00;35.70
3548;DHT22;1788;49.400;11.092;2022-07-29T13:46:39;29.40;36.60
3548;DHT22;1788;49.400;11.092;2022-07-29T13:49:06;29.30;36.10
3548;DHT22;1788;49.400;11.092;2022-07-29T13:51:33;29.20;36.10
3548;DHT22;1788;49.400;11.092;2022-07-29T13:54:00;28.90;37.00
3548;DHT22;1788;49.400;11.092;2022-07-29T13:56:27;28.90;36.40
3548;DHT22;1788;49.400;11.092;2022-07-29T13:58:54;28.70;36.90
3548;DHT22;1788;49.400;11.092;2022-07-29T14:01:20;28.60;37.40
3548;DHT22;1788;49.400;11.092;2022-07-29T14:03:47;28.50;37.80
3548;DHT22;1788;49.400;11.092;2022-07-29T14:06:14;28.20;38.20
3548;DHT22;1788;49.400;11.092;2022-07-29T14:08:41;28.20;38.20
3548;DHT22;1788;49.400;11.092;2022-07-29T14:11:08;28.20;38.50
3548;DHT22;1788;49.400;11.092;2022-07-29T14:13:34;28.10;38.90
3548;DHT22;1788;49.400;11.092;2022-07-29T14:16:01;28.00;39.30
3548;DHT22;1788;49.400;11.092;2022-07-29T14:18:27;28.00;39.90
3548;DHT22;1788;49.400;11.092;2022-07-29T14:20:54;28.00;40.20
3548;DHT22;1788;49.400;11.092;2022-07-29T14:23:21;28.00;40.30
3548;DHT22;1788;49.400;11.092;2022-07-29T14:25:47;28.00;40.50
3548;DHT22;1788;49.400;11.092;2022-07-29T14:28:15;28.10;40.80
3548;DHT22;1788;49.400;11.092;2022-07-29T14:30:41;28.10;40.80
3548;DHT22;1788;49.400;11.092;2022-07-29T14:33:08;28.10;40.80
3548;DHT22;1788;49.400;11.092;2022-07-29T14:35:35;28.20;40.90
3548;DHT22;1788;49.400;11.092;2022-07-29T14:38:02;28.20;41.30
3548;DHT22;1788;49.400;11.092;2022-07-29T14:40:29;28.10;41.10
3548;DHT22;1788;49.400;11.092;2022-07-29T14:42:55;28.20;41.30
3548;DHT22;1788;49.400;11.092;2022-07-29T14:45:22;28.20;41.40
3548;DHT22;1788;49.400;11.092;2022-07-29T14:47:48;28.20;41.60
3548;DHT22;1788;49.400;11.092;2022-07-29T14:50:15;28.20;41.70
3548;DHT22;1788;49.400;11.092;2022-07-29T14:52:42;28.30;42.00
3548;DHT22;1788;49.400;11.092;2022-07-29T14:55:09;28.20;41.90
3548;DHT22;1788;49.400;11.092;2022-07-29T14:57:36;28.40;41.90
3548;DHT22;1788;49.400;11.092;2022-07-29T15:00:03;28.40;41.90
3548;DHT22;1788;49.400;11.092;2022-07-29T15:02:30;28.50;41.80
3548;DHT22;1788;49.400;11.092;2022-07-29T15:04:56;28.50;41.70
3548;DHT22;1788;49.400;11.092;2022-07-29T15:07:23;28.60;41.80
3548;DHT22;1788;49.400;11.092;2022-07-29T15:09:49;28.60;41.70
3548;DHT22;1788;49.400;11.092;2022-07-29T15:12:16;28.60;41.70
3548;DHT22;1788;49.400;11.092;2022-07-29T15:14:43;28.70;41.70
3548;DHT22;1788;49.400;11.092;2022-07-29T15:17:09;28.60;41.50
3548;DHT22;1788;49.400;11.092;2022-07-29T15:19:37;28.60;41.20
3548;DHT22;1788;49.400;11.092;2022-07-29T15:22:03;28.60;41.20
3548;DHT22;1788;49.400;11.092;2022-07-29T15:24:30;28.50;41.40
3548;DHT22;1788;49.400;11.092;2022-07-29T15:26:57;28.50;42.00
3548;DHT22;1788;49.400;11.092;2022-07-29T15:29:23;28.40;42.40
3548;DHT22;1788;49.400;11.092;2022-07-29T15:31:50;28.30;42.70
3548;DHT22;1788;49.400;11.092;2022-07-29T15:34:16;28.20;43.00
3548;DHT22;1788;49.400;11.092;2022-07-29T15:36:43;28.20;43.20
3548;DHT22;1788;49.400;11.092;2022-07-29T15:39:10;28.10;43.50
3548;DHT22;1788;49.400;11.092;2022-07-29T15:41:37;28.00;43.80
3548;DHT22;1788;49.400;11.092;2022-07-29T15:44:04;28.00;43.80
3548;DHT22;1788;49.400;11.092;2022-07-29T15:46:30;28.00;43.90
3548;DHT22;1788;49.400;11.092;2022-07-29T15:48:57;27.90;43.90
3548;DHT22;1788;49.400;11.092;2022-07-29T15:51:23;27.80;44.00
3548;DHT22;1788;49.400;11.092;2022-07-29T15:53:50;27.70;44.10
3548;DHT22;1788;49.400;11.092;2022-07-29T15:56:17;27.70;44.30
3548;DHT22;1788;49.400;11.092;2022-07-29T15:58:43;27.60;44.50
3548;DHT22;1788;49.400;11.092;2022-07-29T16:01:10;27.50;44.90
3548;DHT22;1788;49.400;11.092;2022-07-29T16:03:36;27.40;45.30
3548;DHT22;1788;49.400;11.092;2022-07-29T16:06:04;27.20;45.70
3548;DHT22;1788;49.400;11.092;2022-07-29T16:08:31;27.10;46.10
3548;DHT22;1788;49.400;11.092;2022-07-29T16:10:57;26.90;46.40
3548;DHT22;1788;49.400;11.092;2022-07-29T16:13:24;26.80;46.60
3548;DHT22;1788;49.400;11.092;2022-07-29T16:15:51;26.60;47.00
3548;DHT22;1788;49.400;11.092;2022-07-29T16:18:18;26.60;47.00
3548;DHT22;1788;49.400;11.092;2022-07-29T16:20:44;26.60;47.20
3548;DHT22;1788;49.400;11.092;2022-07-29T16:23:11;26.60;47.40
3548;DHT22;1788;49.400;11.092;2022-07-29T16:25:38;26.50;47.50
3548;DHT22;1788;49.400;11.092;2022-07-29T16:28:05;26.40;48.00
3548;DHT22;1788;49.400;11.092;2022-07-29T16:30:32;26.40;48.10
3548;DHT22;1788;49.400;11.092;2022-07-29T16:32:59;26.20;49.20
3548;DHT22;1788;49.400;11.092;2022-07-29T16:35:26;26.20;48.60
3548;DHT22;1788;49.400;11.092;2022-07-29T16:37:52;26.20;48.90
3548;DHT22;1788;49.400;11.092;2022-07-29T16:40:19;26.10;49.30
3548;DHT22;1788;49.400;11.092;2022-07-29T16:42:46;26.00;49.40
3548;DHT22;1788;49.400;11.092;2022-07-29T16:45:12;25.90;49.60
3548;DHT22;1788;49.400;11.092;2022-07-29T16:47:40;25.70;49.80
3548;DHT22;1788;49.400;11.092;2022-07-29T16:50:06;25.70;49.80
3548;DHT22;1788;49.400;11.092;2022-07-29T16:52:33;25.60;50.00
3548;DHT22;1788;49.400;11.092;2022-07-29T16:55:01;25.40;51.20
3548;DHT22;1788;49.400;11.092;2022-07-29T16:57:27;25.40;50.60
3548;DHT22;1788;49.400;11.092;2022-07-29T16:59:54;25.30;50.70
3548;DHT22;1788;49.400;11.092;2022-07-29T17:02:21;25.30;50.90
3548;DHT22;1788;49.400;11.092;2022-07-29T17:04:47;25.20;51.10
3548;DHT22;1788;49.400;11.092;2022-07-29T17:07:14;25.10;51.40
3548;DHT22;1788;49.400;11.092;2022-07-29T17:09:41;25.00;51.60
3548;DHT22;1788;49.400;11.092;2022-07-29T17:12:08;24.90;51.90
3548;DHT22;1788;49.400;11.092;2022-07-29T17:14:34;24.80;52.10
3548;DHT22;1788;49.400;11.092;2022-07-29T17:17:01;24.70;52.40
3548;DHT22;1788;49.400;11.092;2022-07-29T17:19:28;24.50;52.70
3548;DHT22;1788;49.400;11.092;2022-07-29T17:21:54;24.40;53.00